Time;durP1;ratioP1;P1;durP2;ratioP2;P2;SDS_P1;SDS_P2;PMS_P1;PMS_P2;Temp;Humidity;BMP_temperature;BMP_pressure;BME280_temperature;BME280_humidity;BME280_pressure;Samples;Min_cycle;Max_cycle;Signal;HPM_P1;HPM_P2
2023/09/10 00:02:55;;;;;;;14.40;6.70;;;;;;;17.21;83.72;100214.73;109449;1252;69806;-59
2023/09/10 00:05:43;;;;;;;13.70;6.90;;;;;;;17.22;83.49;100211.74;109554;1253;71827;-61
2023/09/10 00:08:29;;;;;;;11.80;6.80;;;;;;;17.22;83.10;100209.96;109536;1252;58983;-60
2023/09/10 00:11:15;;;;;;;12.80;7.10;;;;;;;17.20;83.10;100207.94;109391;1253;60185;-60
2023/09/10 00:14:01;;;;;;;12.00;6.80;;;;;;;17.19;82.97;100201.06;109530;1252;72639;-60
2023/09/10 00:16:48;;;;;;;11.30;6.50;;;;;;;17.18;82.92;100206.81;109523;1252;66863;-59
2023/09/10 00:19:34;;;;;;;14.40;7.60;;;;;;;17.18;82.86;100208.33;109440;1253;73765;-60
2023/09/10 00:22:20;;;;;;;16.40;6.50;;;;;;;17.17;82.89;100206.30;109352;1253;58478;-60
2023/09/10 00:25:07;;;;;;;12.80;7.00;;;;;;;17.15;82.84;100207.88;109524;1252;59962;-61
2023/09/10 00:27:53;;;;;;;13.30;7.50;;;;;;;17.15;82.84;100205.80;109399;1253;73061;-60
2023/09/10 00:30:39;;;;;;;12.80;7.20;;;;;;;17.14;82.64;100204.64;109537;1252;68667;-60
2023/09/10 00:33:26;;;;;;;12.70;7.30;;;;;;;17.13;82.42;100202.59;109390;1253;73946;-61
2023/09/10 00:36:12;;;;;;;11.70;7.30;;;;;;;17.13;82.26;100201.66;109378;1253;57883;-60
2023/09/10 00:38:58;;;;;;;12.80;7.80;;;;;;;17.12;82.19;100199.11;109442;1252;60207;-61
2023/09/10 00:41:45;;;;;;;13.80;7.50;;;;;;;17.08;82.26;100191.42;109562;1253;71862;-62
2023/09/10 00:44:32;;;;;;;16.10;7.40;;;;;;;17.08;82.26;100192.52;109396;1253;68791;-61
2023/09/10 00:47:18;;;;;;;12.20;7.30;;;;;;;17.05;82.29;100190.33;109477;1252;72653;-61
2023/09/10 00:50:05;;;;;;;13.20;7.30;;;;;;;17.01;82.48;100191.74;109349;1255;59280;-61
2023/09/10 00:52:57;;;;;;;12.80;6.80;;;;;;;16.97;82.50;100189.51;109332;1253;60060;-61
2023/09/10 00:55:43;;;;;;;12.20;6.90;;;;;;;16.92;82.61;100189.14;109553;1252;72942;-61
2023/09/10 00:58:29;;;;;;;11.50;7.30;;;;;;;16.88;82.73;100188.42;109433;1252;66435;-61
2023/09/10 01:01:17;;;;;;;12.00;7.40;;;;;;;16.85;82.75;100190.00;109371;1253;72616;-61
2023/09/10 01:04:04;;;;;;;13.60;6.90;;;;;;;16.82;82.78;100187.95;109464;1253;57542;-59
2023/09/10 01:06:52;;;;;;;14.60;7.50;;;;;;;16.79;82.80;100186.45;109257;1254;60527;-60
2023/09/10 01:09:40;;;;;;;15.00;6.90;;;;;;;16.77;82.81;100183.63;109536;1252;73104;-60
2023/09/10 01:13:00;;;;;;;13.00;7.10;;;;;;;16.76;82.75;100184.59;109543;1252;68272;-59
2023/09/10 01:15:59;;;;;;;13.80;7.10;;;;;;;16.75;82.63;100185.77;109544;1252;72470;-60
2023/09/10 01:18:48;;;;;;;11.90;6.60;;;;;;;16.71;82.59;100179.28;109498;1253;58201;-62
2023/09/10 01:21:51;;;;;;;12.60;7.20;;;;;;;16.71;82.54;100181.19;109518;1253;60196;-60
2023/09/10 01:24:50;;;;;;;12.30;7.30;;;;;;;16.70;82.41;100180.41;109407;1253;72664;-61
2023/09/10 01:27:37;;;;;;;12.40;7.00;;;;;;;16.69;82.35;100180.30;109552;1252;68856;-61
2023/09/10 01:30:23;;;;;;;13.30;6.90;;;;;;;16.70;82.33;100177.68;109239;1254;72592;-61
2023/09/10 01:33:26;;;;;;;13.10;7.10;;;;;;;16.69;82.28;100175.40;109333;1253;57777;-61
2023/09/10 01:36:23;;;;;;;12.00;6.90;;;;;;;16.69;82.28;100178.52;109435;1253;60374;-61
2023/09/10 01:39:25;;;;;;;14.70;7.40;;;;;;;16.69;82.27;100180.27;109405;1253;73003;-61
2023/09/10 01:42:12;;;;;;;13.50;7.70;;;;;;;16.71;82.35;100179.59;109589;1252;67724;-60
2023/09/10 01:44:59;;;;;;;12.20;6.30;;;;;;;16.69;82.21;100174.10;109385;1254;72442;-61
2023/09/10 01:47:46;;;;;;;12.20;6.70;;;;;;;16.73;82.25;100176.84;109303;1253;57246;-60
2023/09/10 01:50:33;;;;;;;12.00;6.80;;;;;;;16.75;82.30;100179.04;109449;1252;60523;-59
2023/09/10 01:53:19;;;;;;;13.20;7.40;;;;;;;16.76;82.25;100179.42;109393;1254;72312;-59
2023/09/10 01:56:05;;;;;;;11.40;6.80;;;;;;;16.77;82.20;100175.80;109523;1252;66443;-60
2023/09/10 01:58:51;;;;;;;14.00;8.20;;;;;;;16.76;82.21;100170.27;109417;1252;72547;-60
2023/09/10 02:01:38;;;;;;;12.10;7.50;;;;;;;16.76;82.31;100173.36;109520;1252;59540;-62
2023/09/10 02:04:24;;;;;;;11.50;7.30;;;;;;;16.77;82.32;100172.84;109431;1252;58874;-61
2023/09/10 02:07:10;;;;;;;14.50;7.60;;;;;;;16.78;82.28;100168.52;109468;1252;72262;-60
2023/09/10 02:09:58;;;;;;;13.10;8.00;;;;;;;16.79;82.38;100169.40;109499;1252;67846;-59
2023/09/10 02:12:44;;;;;;;14.20;8.20;;;;;;;16.81;82.28;100161.69;109470;1252;72430;-60
2023/09/10 02:15:30;;;;;;;14.00;8.00;;;;;;;16.84;82.23;100162.85;109407;1253;59238;-59
2023/09/10 02:18:16;;;;;;;13.90;8.70;;;;;;;16.87;82.07;100160.05;109425;1253;60367;-59
2023/09/10 02:21:10;;;;;;;14.10;8.20;;;;;;;16.89;81.95;100161.09;109544;1252;72677;-60
2023/09/10 02:23:56;;;;;;;14.90;8.20;;;;;;;16.91;81.90;100155.59;109557;1252;66473;-60
2023/09/10 02:26:42;;;;;;;13.20;7.90;;;;;;;16.90;81.89;100155.88;109528;1252;73620;-60
2023/09/10 02:29:28;;;;;;;17.40;8.40;;;;;;;16.89;81.99;100153.08;109452;1253;59335;-60
2023/09/10 02:32:14;;;;;;;15.00;8.10;;;;;;;16.91;82.06;100154.61;109532;1252;61148;-59
2023/09/10 02:35:01;;;;;;;15.20;8.50;;;;;;;16.96;81.94;100155.77;109376;1252;72767;-59
2023/09/10 02:37:48;;;;;;;14.40;8.70;;;;;;;16.96;81.86;100151.77;109507;1252;68761;-59
2023/09/10 02:40:34;;;;;;;13.50;8.00;;;;;;;16.98;81.69;100154.83;109432;1253;72435;-57
2023/09/10 02:43:21;;;;;;;15.50;8.70;;;;;;;16.97;81.67;100155.12;109422;1253;58894;-59
2023/09/10 02:46:08;;;;;;;16.80;8.70;;;;;;;16.96;81.76;100151.80;109447;1253;59921;-59
2023/09/10 02:48:54;;;;;;;13.10;8.30;;;;;;;16.96;81.72;100153.41;109409;1252;72854;-60
2023/09/10 02:51:41;;;;;;;15.50;8.90;;;;;;;16.95;81.62;100151.69;109395;1253;68947;-59
2023/09/10 02:54:28;;;;;;;15.10;8.50;;;;;;;16.93;81.83;100150.50;109407;1253;73696;-59
2023/09/10 02:57:15;;;;;;;14.90;8.80;;;;;;;16.91;81.86;100149.84;109464;1253;57897;-59
2023/09/10 03:00:01;;;;;;;16.00;8.80;;;;;;;16.89;81.92;100148.53;109532;1253;60086;-59
2023/09/10 03:02:55;;;;;;;15.10;8.80;;;;;;;16.88;81.96;100145.95;109458;1253;71642;-59
2023/09/10 03:05:41;;;;;;;14.10;8.40;;;;;;;16.87;82.16;100144.84;109480;1253;67319;-62
2023/09/10 03:08:32;;;;;;;12.80;8.20;;;;;;;16.85;82.06;100145.05;109510;1252;72832;-60
2023/09/10 03:11:18;;;;;;;15.20;8.10;;;;;;;16.83;82.34;100145.60;109504;1252;57783;-62
2023/09/10 03:14:06;;;;;;;15.00;9.30;;;;;;;16.80;82.28;100146.39;109442;1253;59024;-61
2023/09/10 03:16:52;;;;;;;15.10;8.60;;;;;;;16.77;82.55;100146.03;109616;1252;72934;-60
2023/09/10 03:19:40;;;;;;;14.70;9.30;;;;;;;16.73;82.60;100150.40;109340;1252;67904;-60
2023/09/10 03:22:26;;;;;;;15.00;9.30;;;;;;;16.67;82.80;100153.61;109472;1252;73569;-60
2023/09/10 03:25:12;;;;;;;14.30;8.90;;;;;;;16.64;82.95;100149.41;109420;1252;59562;-60
2023/09/10 03:27:59;;;;;;;16.10;8.60;;;;;;;16.64;83.39;100148.06;109503;1252;58956;-61
2023/09/10 03:30:45;;;;;;;14.50;8.80;;;;;;;16.64;83.21;100144.98;109561;1252;71806;-61
2023/09/10 03:33:32;;;;;;;13.60;8.80;;;;;;;16.62;83.38;100145.17;109460;1252;68704;-60
2023/09/10 03:36:18;;;;;;;14.90;8.90;;;;;;;16.65;83.52;100148.67;109495;1252;72647;-61
2023/09/10 03:39:05;;;;;;;16.40;9.20;;;;;;;16.65;83.42;100137.59;109442;1253;60389;-60
2023/09/10 03:41:54;;;;;;;16.60;8.80;;;;;;;16.67;83.07;100141.47;109387;1253;59099;-60
2023/09/10 03:44:41;;;;;;;15.30;9.00;;;;;;;16.66;83.17;100141.70;109352;1253;71828;-61
2023/09/10 03:47:29;;;;;;;16.30;9.50;;;;;;;16.63;83.23;100137.52;109538;1252;68726;-60
2023/09/10 03:50:16;;;;;;;15.60;9.00;;;;;;;16.61;83.44;100137.22;109489;1252;72612;-60
2023/09/10 03:53:02;;;;;;;17.00;9.20;;;;;;;16.60;83.43;100137.52;109364;1254;58945;-62
2023/09/10 03:55:48;;;;;;;17.80;9.20;;;;;;;16.58;83.51;100134.31;109459;1253;60058;-61
2023/09/10 03:58:35;;;;;;;13.80;8.80;;;;;;;16.57;83.54;100129.73;109363;1252;71910;-61
2023/09/10 04:01:22;;;;;;;15.40;9.20;;;;;;;16.55;83.56;100128.58;109458;1253;66501;-61
2023/09/10 04:04:08;;;;;;;15.20;9.00;;;;;;;16.56;83.74;100124.92;109524;1252;72419;-60
2023/09/10 04:06:54;;;;;;;17.10;8.90;;;;;;;16.55;83.84;100123.85;109522;1252;58883;-62
2023/09/10 04:09:41;;;;;;;14.60;9.70;;;;;;;16.53;83.92;100121.77;109556;1252;59785;-60
2023/09/10 04:12:27;;;;;;;15.90;9.30;;;;;;;16.51;84.01;100117.08;109611;1252;72989;-60
2023/09/10 04:15:13;;;;;;;16.70;9.60;;;;;;;16.51;84.14;100119.30;109555;1252;67746;-60
2023/09/10 04:18:00;;;;;;;17.40;9.60;;;;;;;16.50;84.06;100119.32;109554;1252;73649;-61
2023/09/10 04:20:46;;;;;;;15.50;9.10;;;;;;;16.50;84.18;100125.06;109476;1257;60677;-61
2023/09/10 04:23:32;;;;;;;16.20;9.60;;;;;;;16.52;84.15;100117.71;109597;1252;61169;-60
2023/09/10 04:26:21;;;;;;;15.90;9.30;;;;;;;16.53;84.03;100115.90;109498;1253;72818;-61
2023/09/10 04:29:07;;;;;;;15.20;9.00;;;;;;;16.53;84.25;100116.54;109495;1252;67621;-63
2023/09/10 04:31:54;;;;;;;14.20;9.00;;;;;;;16.54;84.21;100115.95;109540;1252;73560;-60
2023/09/10 04:34:40;;;;;;;14.10;9.20;;;;;;;16.55;84.08;100116.23;109477;1253;58660;-60
2023/09/10 04:37:27;;;;;;;15.40;9.80;;;;;;;16.55;84.24;100116.34;109304;1252;192472;-59
2023/09/10 04:40:13;;;;;;;15.40;9.30;;;;;;;16.58;84.31;100118.23;109547;1252;71830;-61
2023/09/10 04:43:00;;;;;;;13.70;8.60;;;;;;;16.61;84.33;100121.51;109311;1252;67958;-61
2023/09/10 04:45:46;;;;;;;16.70;10.40;;;;;;;16.64;84.34;100121.00;109369;1253;72625;-64
2023/09/10 04:48:32;;;;;;;15.50;9.50;;;;;;;16.70;84.36;100118.74;109364;1253;59220;-62
2023/09/10 04:51:19;;;;;;;15.70;9.70;;;;;;;16.76;84.04;100117.79;109384;1253;61244;-62
2023/09/10 04:54:06;;;;;;;15.80;9.70;;;;;;;16.81;83.84;100120.48;109419;1252;74049;-61
2023/09/10 04:56:53;;;;;;;14.60;9.40;;;;;;;16.86;83.77;100119.84;109462;1252;66642;-63
2023/09/10 04:59:41;;;;;;;16.60;9.80;;;;;;;16.93;83.55;100123.64;109456;1252;73284;-63
2023/09/10 05:02:27;;;;;;;18.10;9.50;;;;;;;16.98;83.46;100124.84;109467;1252;57977;-62
2023/09/10 05:05:14;;;;;;;13.70;9.10;;;;;;;17.05;83.17;100123.45;109437;1252;60403;-63
2023/09/10 05:08:01;;;;;;;16.30;9.80;;;;;;;17.10;82.94;100121.47;109526;1252;74034;-61
2023/09/10 05:10:48;;;;;;;15.50;9.70;;;;;;;17.15;82.76;100122.52;109524;1253;66590;-64
2023/09/10 05:13:34;;;;;;;14.30;9.60;;;;;;;17.22;82.66;100121.73;109573;1252;73709;-63
2023/09/10 05:16:20;;;;;;;14.00;8.80;;;;;;;17.27;82.46;100122.38;109480;1252;57891;-62
2023/09/10 05:19:07;;;;;;;16.00;9.50;;;;;;;17.33;82.32;100125.57;109547;1252;61381;-61
2023/09/10 05:21:53;;;;;;;15.60;9.50;;;;;;;17.39;82.21;100121.86;109472;1253;73981;-63
2023/09/10 05:24:39;;;;;;;16.40;9.80;;;;;;;17.48;81.93;100115.53;109555;1252;66845;-64
2023/09/10 05:27:25;;;;;;;14.80;9.90;;;;;;;17.57;81.54;100115.29;109478;1252;72517;-68
2023/09/10 05:30:12;;;;;;;15.30;9.70;;;;;;;17.67;81.29;100118.05;109467;1252;57377;-63
2023/09/10 05:32:59;;;;;;;15.10;9.40;;;;;;;17.73;81.09;100112.55;109363;1252;61343;-67
2023/09/10 05:35:56;;;;;;;15.80;9.80;;;;;;;17.81;80.73;100109.54;109415;1253;74062;-65
2023/09/10 05:38:42;;;;;;;17.80;9.30;;;;;;;17.86;80.32;100098.58;109483;1253;66793;-62
2023/09/10 05:41:29;;;;;;;16.40;10.00;;;;;;;17.98;80.13;100104.66;109474;1253;72719;-62
2023/09/10 05:44:16;;;;;;;16.20;9.70;;;;;;;18.07;79.94;100104.66;109429;1253;58785;-63
2023/09/10 05:47:03;;;;;;;18.40;10.10;;;;;;;18.13;79.65;100107.58;109460;1252;61474;-63
2023/09/10 05:49:52;;;;;;;18.10;10.00;;;;;;;18.19;79.59;100109.20;109479;1253;72792;-65
2023/09/10 05:52:39;;;;;;;15.20;9.90;;;;;;;18.28;79.47;100107.05;109486;1253;68767;-63
2023/09/10 05:55:26;;;;;;;15.30;9.80;;;;;;;18.35;79.37;100103.38;109349;1254;70867;-62
2023/09/10 05:58:12;;;;;;;14.50;9.50;;;;;;;18.43;79.09;100102.13;109434;1253;57686;-64
2023/09/10 06:00:58;;;;;;;15.00;9.80;;;;;;;18.51;78.82;100106.60;109422;1252;61208;-62
2023/09/10 06:03:44;;;;;;;14.90;9.50;;;;;;;18.61;78.43;100105.95;109532;1252;73728;-64
2023/09/10 06:06:32;;;;;;;17.80;10.40;;;;;;;18.67;78.05;100104.15;109472;1253;68124;-65
2023/09/10 06:09:18;;;;;;;16.10;9.20;;;;;;;18.81;77.59;100105.42;109343;1253;71204;-65
2023/09/10 06:12:05;;;;;;;17.70;9.70;;;;;;;18.94;76.96;100102.41;109405;1253;59162;-66
2023/09/10 06:14:52;;;;;;;13.70;8.90;;;;;;;19.11;76.61;100102.27;109413;1253;60194;-68
2023/09/10 06:17:40;;;;;;;15.80;10.10;;;;;;;19.33;75.78;100097.50;109478;1253;73745;-67
2023/09/10 06:20:26;;;;;;;15.70;9.40;;;;;;;19.59;75.17;100097.20;109405;1253;66208;-69
2023/09/10 06:23:13;;;;;;;14.90;9.50;;;;;;;19.97;73.78;100093.38;109285;1253;71226;-72
2023/09/10 06:25:59;;;;;;;17.80;9.80;;;;;;;21.04;71.89;100094.43;109231;1253;58299;-69
2023/09/10 06:28:46;;;;;;;13.00;8.30;;;;;;;22.77;66.76;100088.10;109297;1253;60224;-71
2023/09/10 06:31:32;;;;;;;12.70;8.50;;;;;;;24.48;60.98;100089.55;109293;1253;73366;-69
2023/09/10 06:34:19;;;;;;;12.30;8.00;;;;;;;26.06;55.74;100084.55;109247;1253;67773;-68
2023/09/10 06:37:06;;;;;;;14.60;7.90;;;;;;;27.49;51.98;100083.27;109419;1253;72717;-69
2023/09/10 06:39:53;;;;;;;12.80;7.70;;;;;;;28.87;47.35;100083.91;109390;1252;57839;-69
2023/09/10 06:42:40;;;;;;;12.00;7.10;;;;;;;29.88;43.41;100084.88;109426;1252;58756;-69
2023/09/10 06:45:33;;;;;;;13.00;7.30;;;;;;;30.76;41.52;100083.09;109568;1254;72874;-69
2023/09/10 06:48:19;;;;;;;12.30;6.50;;;;;;;31.56;39.29;100083.17;109346;1253;67750;-69
2023/09/10 06:51:06;;;;;;;12.80;6.70;;;;;;;32.16;37.41;100081.53;109506;1252;72534;-73
2023/09/10 06:53:52;;;;;;;11.70;6.40;;;;;;;32.64;35.75;100088.16;109238;1253;58681;-70
2023/09/10 06:56:38;;;;;;;12.60;6.60;;;;;;;33.04;34.67;100083.08;109502;1253;60645;-69
2023/09/10 06:59:25;;;;;;;11.40;6.20;;;;;;;33.53;34.48;100086.58;109361;1252;71573;-69
2023/09/10 07:02:11;;;;;;;11.90;6.80;;;;;;;34.17;33.42;100090.45;109540;1253;66914;-70
2023/09/10 07:04:58;;;;;;;12.00;6.30;;;;;;;34.75;32.67;100087.04;109331;1253;73142;-69
2023/09/10 07:07:45;;;;;;;10.40;5.90;;;;;;;35.29;31.35;100089.30;109474;1253;57369;-69
2023/09/10 07:10:33;;;;;;;11.00;6.10;;;;;;;35.81;30.48;100088.30;109357;1253;60204;-69
2023/09/10 07:13:20;;;;;;;12.40;5.80;;;;;;;36.37;29.72;100086.39;109469;1253;73379;-73
2023/09/10 07:16:06;;;;;;;12.40;6.00;;;;;;;36.74;28.92;100086.73;109549;1253;68774;-69
2023/09/10 07:18:53;;;;;;;10.80;5.50;;;;;;;37.05;28.17;100084.45;109229;1253;73032;-71
2023/09/10 07:21:39;;;;;;;14.50;5.50;;;;;;;37.28;27.41;100081.46;109379;1253;57702;-73
2023/09/10 07:24:26;;;;;;;12.40;5.90;;;;;;;37.49;27.53;100087.25;109471;1253;61175;-73
2023/09/10 07:27:12;;;;;;;11.40;5.40;;;;;;;37.79;26.99;100087.64;109493;1252;72949;-71
2023/09/10 07:29:59;;;;;;;10.10;5.30;;;;;;;38.24;26.31;100088.39;109502;1253;68371;-71
2023/09/10 07:32:46;;;;;;;13.10;5.30;;;;;;;38.44;26.11;100089.67;109392;1252;71413;-69
2023/09/10 07:35:32;;;;;;;13.90;5.50;;;;;;;38.50;26.18;100087.98;109483;1252;57485;-69
2023/09/10 07:38:19;;;;;;;10.70;5.30;;;;;;;38.67;26.00;100080.66;109364;1252;58759;-70
2023/09/10 07:41:05;;;;;;;11.30;5.30;;;;;;;39.00;25.56;100078.98;109276;1253;72834;-63
2023/09/10 07:43:51;;;;;;;11.80;5.80;;;;;;;39.18;25.64;100078.79;109509;1253;67704;-64
2023/09/10 07:46:37;;;;;;;13.60;5.90;;;;;;;38.94;25.07;100078.83;109365;1253;72677;-62
2023/09/10 07:49:24;;;;;;;12.60;6.10;;;;;;;38.72;25.79;100076.48;109574;1252;57289;-61
2023/09/10 07:52:10;;;;;;;11.80;5.90;;;;;;;38.56;26.00;100077.53;109502;1252;60378;-63
2023/09/10 07:54:56;;;;;;;13.50;5.50;;;;;;;38.86;26.13;100072.86;109271;1253;72914;-64
2023/09/10 07:57:43;;;;;;;10.40;5.60;;;;;;;38.77;25.60;100073.27;109514;1252;67613;-63
2023/09/10 08:00:32;;;;;;;14.50;6.10;;;;;;;38.65;25.77;100071.58;109469;1252;71267;-62
2023/09/10 08:03:18;;;;;;;11.90;5.50;;;;;;;38.96;25.78;100063.83;109364;1252;57710;-62
2023/09/10 08:06:06;;;;;;;10.00;5.40;;;;;;;39.11;25.02;100067.45;109597;1252;60143;-66
2023/09/10 08:08:52;;;;;;;9.80;5.50;;;;;;;38.59;24.84;100067.15;109439;1253;73029;-65
2023/09/10 08:11:39;;;;;;;11.50;5.30;;;;;;;37.91;25.08;100066.23;109561;1252;67957;-63
2023/09/10 08:14:25;;;;;;;12.40;5.40;;;;;;;37.29;25.62;100063.81;109566;1253;72490;-64
2023/09/10 08:17:11;;;;;;;11.20;5.00;;;;;;;37.27;25.88;100062.63;109516;1252;57981;-62
2023/09/10 08:19:58;;;;;;;12.70;5.40;;;;;;;37.26;26.36;100060.96;109399;1253;60082;-62
2023/09/10 08:22:44;;;;;;;10.30;5.00;;;;;;;37.70;25.70;100063.30;109453;1252;72967;-62
2023/09/10 08:25:32;;;;;;;9.00;5.10;;;;;;;37.73;25.84;100056.41;109515;1253;67558;-62
2023/09/10 08:28:18;;;;;;;12.20;5.90;;;;;;;38.07;25.55;100059.27;109323;1253;71233;-62
2023/09/10 08:31:05;;;;;;;12.90;5.20;;;;;;;38.18;25.34;100063.81;109456;1253;57669;-65
2023/09/10 08:33:52;;;;;;;10.40;5.00;;;;;;;38.30;25.00;100063.12;109293;1256;59276;-64
2023/09/10 08:36:38;;;;;;;10.40;5.10;;;;;;;37.79;25.17;100059.40;109486;1253;71505;-62
2023/09/10 08:39:25;;;;;;;12.00;5.30;;;;;;;37.20;25.49;100056.88;109542;1252;67344;-63
2023/09/10 08:42:38;;;;;;;12.50;5.50;;;;;;;37.34;25.70;100051.04;109475;1252;72054;-64
2023/09/10 08:45:24;;;;;;;11.20;5.00;;;;;;;37.88;24.86;100054.87;109499;1253;58708;-62
2023/09/10 08:48:14;;;;;;;12.20;4.80;;;;;;;38.02;24.70;100053.19;109292;1253;58909;-62
2023/09/10 08:51:01;;;;;;;13.60;5.30;;;;;;;38.30;24.17;100046.85;109508;1253;73970;-64
2023/09/10 08:53:47;;;;;;;9.80;5.10;;;;;;;38.27;23.96;100045.55;109531;1253;67491;-64
2023/09/10 08:56:36;;;;;;;11.90;4.80;;;;;;;38.42;24.18;100041.95;109463;1253;71261;-63
2023/09/10 08:59:23;;;;;;;11.20;5.30;;;;;;;38.34;24.02;100042.03;109405;1252;58551;-63
2023/09/10 09:02:09;;;;;;;11.40;5.00;;;;;;;38.08;23.85;100041.32;109527;1253;60263;-64
2023/09/10 09:04:56;;;;;;;11.30;5.10;;;;;;;37.94;24.34;100037.62;109502;1252;73957;-65
2023/09/10 09:07:54;;;;;;;11.10;4.60;;;;;;;38.19;24.13;100037.86;109520;1253;67847;-63
2023/09/10 09:10:41;;;;;;;10.40;4.40;;;;;;;38.21;24.06;100036.77;109421;1253;71962;-63
2023/09/10 09:13:28;;;;;;;11.20;4.50;;;;;;;37.95;24.38;100030.55;109440;1253;57277;-64
2023/09/10 09:16:18;;;;;;;12.00;5.10;;;;;;;38.09;24.47;100031.08;109433;1252;59048;-65
2023/09/10 09:19:14;;;;;;;10.50;5.10;;;;;;;38.29;24.40;100029.07;109528;1253;74182;-63
2023/09/10 09:22:05;;;;;;;9.50;5.00;;;;;;;38.53;24.49;100026.68;109434;1253;66548;-63
2023/09/10 09:24:52;;;;;;;10.50;5.00;;;;;;;38.85;24.01;100030.06;109460;1253;73538;-63
2023/09/10 09:27:39;;;;;;;11.40;4.70;;;;;;;38.99;23.83;100029.98;109563;1253;57631;-63
2023/09/10 09:30:26;;;;;;;11.00;5.50;;;;;;;38.86;23.74;100033.22;109479;1254;60106;-60
2023/09/10 09:33:12;;;;;;;10.10;5.10;;;;;;;38.94;23.51;100031.56;109423;1253;74611;-61
2023/09/10 09:36:09;;;;;;;11.60;5.10;;;;;;;38.84;23.60;100031.20;109456;1253;67704;-61
2023/09/10 09:38:55;;;;;;;9.10;4.30;;;;;;;39.08;23.47;100025.31;109427;1253;73495;-61
2023/09/10 09:41:42;;;;;;;11.90;4.60;;;;;;;39.16;22.99;100022.91;109423;1253;58128;-64
2023/09/10 09:44:28;;;;;;;8.70;4.80;;;;;;;39.34;22.65;100024.80;109468;1253;58909;-63
2023/09/10 09:47:15;;;;;;;10.20;4.50;;;;;;;39.50;22.40;100023.94;109519;1253;74647;-64
2023/09/10 09:50:03;;;;;;;9.00;4.60;;;;;;;39.67;22.22;100019.77;109546;1252;66919;-63
2023/09/10 09:52:55;;;;;;;8.80;4.80;;;;;;;39.66;21.84;100019.18;109459;1253;71716;-61
2023/09/10 09:55:44;;;;;;;8.70;3.90;;;;;;;39.83;21.05;100018.98;109476;1254;57249;-62
2023/09/10 09:58:31;;;;;;;9.30;4.10;;;;;;;40.24;20.53;100018.33;109484;1252;60061;-65
2023/09/10 10:01:20;;;;;;;9.50;4.10;;;;;;;39.71;20.04;100016.09;109508;1253;74001;-61
2023/09/10 10:04:07;;;;;;;9.30;3.80;;;;;;;39.65;20.52;100005.77;109438;1254;67891;-63
2023/09/10 10:06:55;;;;;;;9.40;4.30;;;;;;;39.95;20.50;100009.75;109478;1253;71462;-61
2023/09/10 10:09:44;;;;;;;7.80;3.80;;;;;;;39.92;19.78;100008.83;109465;1253;58006;-63
2023/09/10 10:12:32;;;;;;;7.70;3.80;;;;;;;39.35;20.44;100009.30;109471;1252;61163;-63
2023/09/10 10:15:20;;;;;;;7.80;4.00;;;;;;;39.54;20.42;100011.99;109471;1253;73347;-63
2023/09/10 10:18:08;;;;;;;8.00;4.30;;;;;;;39.63;20.65;100011.77;109460;1253;67604;-61
2023/09/10 10:20:54;;;;;;;9.90;4.20;;;;;;;38.97;21.18;100006.29;109554;1252;73946;-64
2023/09/10 10:23:41;;;;;;;9.40;4.70;;;;;;;39.09;21.49;100005.32;109462;1253;57778;-61
2023/09/10 10:26:29;;;;;;;8.00;4.40;;;;;;;39.50;21.09;100005.44;109483;1253;59943;-63
2023/09/10 10:29:18;;;;;;;9.00;4.50;;;;;;;39.37;21.06;100002.18;109193;1253;70787;-63
2023/09/10 10:32:16;;;;;;;9.20;4.30;;;;;;;39.16;21.59;100002.23;109572;1253;66737;-62
2023/09/10 10:35:09;;;;;;;9.60;4.70;;;;;;;39.38;21.70;100000.48;109455;1253;73551;-65
2023/09/10 10:38:00;;;;;;;9.60;4.50;;;;;;;39.24;22.04;99998.70;109300;1253;57911;-64
2023/09/10 10:40:49;;;;;;;8.40;4.20;;;;;;;39.50;22.19;99997.60;109541;1254;58947;-63
2023/09/10 10:43:46;;;;;;;9.20;4.50;;;;;;;39.78;21.68;99993.30;109525;1256;72866;-64
2023/09/10 10:46:36;;;;;;;9.80;4.40;;;;;;;40.01;21.61;99995.01;109570;1253;67658;-62
2023/09/10 10:49:23;;;;;;;9.50;4.40;;;;;;;39.92;20.95;99993.34;109296;1253;72520;-62
2023/09/10 10:52:11;;;;;;;9.70;4.70;;;;;;;39.83;21.40;99994.79;109414;1254;57285;-61
2023/09/10 10:54:59;;;;;;;9.00;4.10;;;;;;;39.48;21.20;99987.05;109385;1254;58922;-63
2023/09/10 10:57:45;;;;;;;10.30;5.30;;;;;;;39.50;21.63;99989.45;109528;1253;72823;-60
2023/09/10 11:00:32;;;;;;;8.40;4.80;;;;;;;39.81;21.07;99984.55;109482;1253;67516;-63
2023/09/10 11:03:20;;;;;;;8.60;4.40;;;;;;;39.87;20.74;99981.23;109452;1254;72587;-62
2023/09/10 11:06:07;;;;;;;10.00;4.40;;;;;;;39.71;21.02;99987.31;109480;1253;57881;-61
2023/09/10 11:08:53;;;;;;;10.00;4.80;;;;;;;39.62;21.19;99981.89;109499;1254;60652;-63
2023/09/10 11:11:43;;;;;;;10.10;4.50;;;;;;;39.44;21.11;99981.80;109545;1253;73230;-63
2023/09/10 11:14:29;;;;;;;8.30;4.10;;;;;;;39.43;21.21;99976.98;109569;1253;66396;-63
2023/09/10 11:17:24;;;;;;;8.50;4.70;;;;;;;39.28;20.86;99977.79;109535;1254;73498;-62
2023/09/10 11:20:10;;;;;;;9.20;4.20;;;;;;;38.94;20.89;99971.10;109453;1253;57371;-63
2023/09/10 11:23:09;;;;;;;8.80;4.30;;;;;;;38.55;21.59;99973.38;109555;1254;59090;-62
2023/09/10 11:26:14;;;;;;;9.40;5.10;;;;;;;37.12;22.42;99968.86;109375;1254;72956;-62
2023/09/10 11:29:04;;;;;;;8.80;4.50;;;;;;;36.82;23.33;99972.08;109534;1254;67641;-62
2023/09/10 11:31:53;;;;;;;9.80;4.90;;;;;;;36.77;23.78;99973.13;109490;1254;72511;-63
2023/09/10 11:34:41;;;;;;;8.90;5.20;;;;;;;36.69;23.89;99970.63;109506;1253;58103;-63
2023/09/10 11:37:27;;;;;;;10.50;4.70;;;;;;;36.58;23.87;99967.88;109584;1252;60149;-64
2023/09/10 11:40:15;;;;;;;10.30;5.40;;;;;;;36.39;24.52;99965.59;109474;1253;74114;-64
2023/09/10 11:43:03;;;;;;;9.70;4.90;;;;;;;36.24;24.59;99966.84;109293;1253;69010;-63
2023/09/10 11:45:50;;;;;;;11.00;5.60;;;;;;;36.01;25.04;99968.35;109458;1253;72906;-63
2023/09/10 11:48:36;;;;;;;10.10;5.00;;;;;;;35.70;25.26;99965.84;109425;1253;57699;-63
2023/09/10 11:51:22;;;;;;;13.70;5.00;;;;;;;35.33;25.19;99962.55;109350;1253;60156;-64
2023/09/10 11:54:09;;;;;;;9.30;4.60;;;;;;;35.13;25.59;99961.02;109448;1252;72940;-66
2023/09/10 11:56:57;;;;;;;9.00;4.70;;;;;;;34.55;26.23;99957.57;109332;1253;67908;-62
2023/09/10 11:59:52;;;;;;;12.10;5.50;;;;;;;34.05;27.06;99957.84;109500;1253;72484;-63
2023/09/10 12:02:38;;;;;;;11.20;6.50;;;;;;;33.95;27.66;99953.27;109440;1254;59580;-65
2023/09/10 12:05:26;;;;;;;9.30;5.10;;;;;;;33.93;27.68;99947.86;109491;1253;58866;-63
2023/09/10 12:08:12;;;;;;;10.00;5.20;;;;;;;33.59;27.41;99950.17;109468;1253;72878;-63
2023/09/10 12:11:03;;;;;;;11.00;5.80;;;;;;;33.11;28.57;99957.92;109467;1254;66737;-63
2023/09/10 12:13:50;;;;;;;10.70;6.00;;;;;;;32.62;29.20;99954.70;109336;1253;72447;-64
2023/09/10 12:16:37;;;;;;;10.00;5.40;;;;;;;32.18;30.36;99951.30;109181;1256;58012;-62
2023/09/10 12:19:24;;;;;;;11.20;6.20;;;;;;;31.83;31.14;99954.51;109499;1253;60116;-63
2023/09/10 12:22:14;;;;;;;10.50;6.40;;;;;;;31.49;31.81;99957.79;109524;1252;73461;-61
2023/09/10 12:25:01;;;;;;;9.70;5.40;;;;;;;31.22;32.37;99958.63;109452;1252;67767;-62
2023/09/10 12:27:47;;;;;;;11.60;5.50;;;;;;;31.00;32.64;99953.75;109326;1253;71160;-63
2023/09/10 12:30:36;;;;;;;9.90;5.80;;;;;;;30.84;33.23;99948.34;109466;1252;58699;-63
2023/09/10 12:33:23;;;;;;;11.10;5.80;;;;;;;30.52;33.58;99951.12;109458;1252;59540;-62
2023/09/10 12:36:10;;;;;;;11.00;6.30;;;;;;;30.26;34.26;99951.63;109542;1253;73049;-63
2023/09/10 12:38:59;;;;;;;11.20;6.00;;;;;;;30.08;34.18;99946.54;109524;1254;67968;-62
2023/09/10 12:41:54;;;;;;;13.60;6.40;;;;;;;29.88;33.88;99943.11;109450;1254;72720;-63
2023/09/10 12:44:40;;;;;;;11.20;6.50;;;;;;;29.73;34.32;99938.61;109236;1254;57746;-62
2023/09/10 12:47:28;;;;;;;9.90;5.80;;;;;;;29.67;35.10;99940.49;109546;1256;58776;-66